Terminal Aerodrome Forecast
Issued by NWS King Salmon, AK

Home | Current Version | Previous Version | Text Only | Print | Product List | Glossary On
Versions: 1 2 3 4 5 6 7 8 9 10 11 12
000
FTAK31 PANC 300534
TAFAKN
TAF
PAKN 300534Z 3006/3106 05009KT P6SM SKC
     FM301800 05011KT P6SM BKN120
     FM310000 06020KT P6SM VCSH SCT025 BKN040=

USA.gov is the U.S. government's official web portal to all federal, state and local government web resources and services.